createdAt,value
2018-09-26T07:26:45.832Z,54
2018-09-26T07:29:45.835Z,51
2018-09-26T07:32:45.702Z,50
2018-09-26T07:35:45.709Z,53
2018-09-26T07:38:45.724Z,51
2018-09-26T07:41:45.727Z,46
2018-09-26T07:44:45.721Z,41
2018-09-26T07:47:45.817Z,40
2018-09-26T07:50:45.715Z,43
2018-09-26T07:53:45.720Z,41
2018-09-26T07:56:45.724Z,46
2018-09-26T07:59:45.698Z,46
2018-09-26T08:02:45.720Z,45
2018-09-26T08:05:45.819Z,38
2018-09-26T08:08:45.724Z,34
2018-09-26T08:11:45.857Z,32
2018-09-26T08:14:45.827Z,29
2018-09-26T08:17:45.719Z,28
2018-09-26T08:20:45.848Z,26
2018-09-26T08:23:45.826Z,27
2018-09-26T08:26:45.771Z,24
2018-09-26T08:29:45.834Z,22
2018-09-26T08:32:45.805Z,21
2018-09-26T08:35:45.832Z,23
2018-09-26T08:38:45.810Z,23
2018-09-26T08:41:45.976Z,25
2018-09-26T08:44:46.275Z,21
2018-09-26T08:47:45.879Z,19
2018-09-26T08:50:45.889Z,19
2018-09-26T08:53:46.002Z,19
2018-09-26T08:56:46.330Z,19
2018-09-26T08:59:45.949Z,17
2018-09-26T09:02:45.954Z,20
2018-09-26T09:05:45.963Z,18
2018-09-26T09:08:45.982Z,17
2018-09-26T09:11:46.159Z,18
2018-09-26T09:14:46.223Z,17
2018-09-26T09:17:46.141Z,15
2018-09-26T09:20:46.058Z,17
2018-09-26T09:23:46.484Z,16
2018-09-26T09:29:46.094Z,16
2018-09-26T09:32:46.546Z,15
2018-09-26T09:35:46.128Z,17
2018-09-26T09:38:46.156Z,15
2018-09-26T09:41:46.175Z,16
2018-09-26T09:44:46.204Z,15
2018-09-26T09:47:46.224Z,15
2018-09-26T09:50:46.265Z,14
2018-09-26T09:53:46.244Z,15
2018-09-26T09:56:46.409Z,17
2018-09-26T09:59:46.292Z,14
2018-09-26T10:02:46.406Z,13
2018-09-26T10:05:46.446Z,14
2018-09-26T10:08:46.401Z,14
2018-09-26T10:11:46.398Z,14
2018-09-26T10:14:46.396Z,13
2018-09-26T10:17:46.450Z,13
2018-09-26T10:20:46.585Z,15
2018-09-26T10:23:46.607Z,16
2018-09-26T10:26:46.518Z,14
2018-09-26T10:29:46.525Z,14
2018-09-26T10:32:46.644Z,13
2018-09-26T10:35:46.567Z,13
2018-09-26T10:38:46.594Z,13
2018-09-26T10:41:46.649Z,12
2018-09-26T10:44:46.633Z,11
2018-09-26T10:47:46.693Z,12
2018-09-26T10:50:46.717Z,14
2018-09-26T10:53:46.706Z,12
2018-09-26T10:56:46.867Z,11
2018-09-26T10:59:46.756Z,11
2018-09-26T11:02:46.795Z,11
2018-09-26T11:05:46.832Z,11
2018-09-26T11:08:46.867Z,11
2018-09-26T11:11:46.923Z,12
2018-09-26T11:14:46.924Z,12
2018-09-26T11:17:46.998Z,11
2018-09-26T11:20:46.993Z,14
2018-09-26T11:23:47.000Z,14
2018-09-26T11:26:47.061Z,11
2018-09-26T11:29:47.067Z,12
2018-09-26T11:35:47.141Z,11
2018-09-26T11:38:47.146Z,11
2018-09-26T11:41:47.310Z,11
2018-09-26T11:44:47.234Z,10
2018-09-26T11:47:47.281Z,11
2018-09-26T11:50:47.279Z,13
2018-09-26T11:53:47.303Z,12
2018-09-26T11:56:47.361Z,13
2018-09-26T11:59:47.370Z,12
2018-09-26T12:02:47.480Z,12
2018-09-26T12:05:47.425Z,11
2018-09-26T12:08:47.456Z,11
2018-09-26T12:11:47.505Z,10
2018-09-26T12:14:47.535Z,11
2018-09-26T12:17:47.546Z,11
2018-09-26T12:20:47.586Z,10
2018-09-26T12:23:47.634Z,13
2018-09-26T12:26:47.660Z,11
2018-09-26T12:29:47.668Z,12
2018-09-26T12:32:47.718Z,12
2018-09-26T12:35:47.750Z,12
2018-09-26T12:38:47.780Z,12
2018-09-26T12:41:47.823Z,11
2018-09-26T12:44:47.825Z,12
2018-09-26T12:47:47.880Z,11
2018-09-26T12:50:48.019Z,11
2018-09-26T12:53:48.085Z,12
2018-09-26T12:56:48.083Z,11
2018-09-26T12:59:47.998Z,11
2018-09-26T13:02:48.110Z,11
2018-09-26T13:05:48.161Z,11
2018-09-26T13:08:48.080Z,12
2018-09-26T13:11:48.561Z,12
2018-09-26T13:14:48.145Z,13
2018-09-26T13:17:48.170Z,13
2018-09-26T13:20:48.651Z,14
2018-09-26T13:23:48.335Z,13
2018-09-26T13:26:48.263Z,13
2018-09-26T13:29:48.279Z,15
2018-09-26T13:32:48.291Z,14
2018-09-26T13:35:48.343Z,13
2018-09-26T13:38:48.393Z,15
2018-09-26T13:41:48.484Z,15
2018-09-26T13:44:48.570Z,15
2018-09-26T13:47:48.525Z,15
2018-09-26T13:50:48.460Z,16
2018-09-26T13:53:48.466Z,16
2018-09-26T13:56:48.517Z,15
2018-09-26T13:59:48.504Z,16
2018-09-26T14:02:48.575Z,16
2018-09-26T14:05:48.684Z,18
2018-09-26T14:08:48.689Z,19
2018-09-26T14:11:48.622Z,19
2018-09-26T14:14:48.608Z,18
2018-09-26T14:17:48.651Z,18
2018-09-26T14:20:48.651Z,20
2018-09-26T14:23:48.673Z,20
2018-09-26T14:26:48.696Z,20
2018-09-26T14:29:48.825Z,21
2018-09-26T14:32:48.752Z,22
2018-09-26T14:35:48.793Z,23
2018-09-26T14:38:48.867Z,23
2018-09-26T14:41:48.800Z,25
2018-09-26T14:44:48.903Z,26
2018-09-26T14:47:48.807Z,27
2018-09-26T14:50:48.823Z,27
2018-09-26T14:53:48.822Z,28
2018-09-26T14:56:48.878Z,28
2018-09-26T14:59:48.866Z,29
2018-09-26T15:02:48.843Z,30
2018-09-26T15:05:48.872Z,30
2018-09-26T15:08:48.907Z,31
2018-09-26T15:11:48.968Z,31
2018-09-26T15:14:48.887Z,32
2018-09-26T15:17:49.014Z,32
2018-09-26T15:20:48.924Z,32
2018-09-26T15:23:48.924Z,32
2018-09-26T15:26:49.057Z,33
2018-09-26T15:29:48.918Z,32
2018-09-26T15:32:48.926Z,33
2018-09-26T15:35:48.941Z,33
2018-09-26T15:38:48.941Z,33
2018-09-26T15:41:48.979Z,34
2018-09-26T15:44:49.008Z,33
2018-09-26T15:47:48.950Z,34
2018-09-26T15:50:48.965Z,34
2018-09-26T15:53:48.977Z,34
2018-09-26T15:56:49.078Z,33
2018-09-26T15:59:48.993Z,34
2018-09-26T16:02:49.006Z,35
2018-09-26T16:17:48.977Z,38
2018-09-26T16:20:48.985Z,39
2018-09-26T16:23:48.975Z,38
2018-09-26T16:26:49.100Z,39
2018-09-26T16:29:49.092Z,41
2018-09-26T16:32:49.014Z,40
2018-09-26T16:35:48.982Z,41
2018-09-26T16:56:49.010Z,48
2018-09-26T16:59:48.997Z,50
2018-09-26T17:02:49.100Z,50
2018-09-26T17:05:49.115Z,51
2018-09-26T17:08:49.015Z,51
2018-09-26T17:11:49.017Z,52
2018-09-26T17:14:48.992Z,53
2018-09-26T17:17:48.998Z,54
2018-09-26T17:20:49.017Z,54
2018-09-26T17:23:48.976Z,54
2018-09-26T17:26:49.010Z,56
2018-09-26T17:29:48.974Z,56
2018-09-26T17:32:49.093Z,56
2018-09-26T17:35:49.001Z,56
2018-09-26T17:38:49.391Z,57
2018-09-26T17:41:48.989Z,57
2018-09-26T17:44:48.987Z,57
2018-09-26T17:47:48.962Z,58
2018-09-26T17:50:48.980Z,59
2018-09-26T17:53:48.947Z,59
2018-09-26T17:56:48.965Z,59
2018-09-26T17:59:49.367Z,60
2018-09-26T18:02:49.053Z,60
2018-09-26T18:05:49.079Z,60
2018-09-26T18:08:48.967Z,62
2018-09-26T18:11:48.955Z,62
2018-09-26T18:14:49.037Z,62
2018-09-26T18:17:48.939Z,62
2018-09-26T18:20:48.987Z,63
2018-09-26T18:23:48.944Z,63
2018-09-26T18:26:48.933Z,65
2018-09-26T18:29:48.899Z,65
2018-09-26T18:32:48.939Z,66
2018-09-26T18:35:48.907Z,66
2018-09-26T18:38:49.035Z,66
2018-09-26T18:41:48.879Z,67
2018-09-26T18:44:48.886Z,66
2018-09-26T18:47:48.940Z,67
